Charlottesville, VA (22901)

4:39 AM EST on January 23, 2017 (GMT -0500)
| | Change Station

Elev -9999 ft 0.00 °N, 0.00 °E | Updated 5 minutes ago

Rain
Rain
°F
Feels Like °F
N
Wind Variable Wind from North
Gusts mph

Today
High -- | Low -- °F
--% Chance of Precip.
Yesterday
High -- | Low -- °F
Precip. -- in
Pressure 29.44 in
Visibility 2.5 miles
Clouds Mostly Cloudy 500 ft
Overcast 1000 ft
Dew Point Not available.
Humidity Not available.
Rainfall --
Snow Depth Not available.
7:25 AM 5:27 PM
Waning Crescent, 20% visible
SPECI KCHO 230927Z AUTO 05013KT 2 1/2SM -RA BR BKN005 OVC010 10/09 A2944 RMK AO2 P0000 T01000089
Pressure 29.44 in
Visibility 2.5 miles
Clouds Mostly Cloudy 500 ft
Overcast 1000 ft
Dew Point Not available.
Humidity Not available.
Rainfall --
Snow Depth Not available.
7:25 AM 5:27 PM
Waning Crescent, 20% visible
SPECI KCHO 230927Z AUTO 05013KT 2 1/2SM -RA BR BKN005 OVC010 10/09 A2944 RMK AO2 P0000 T01000089

Get Your Daily Forecast Email!

Thanks for signing up!

Be on the lookout for a verification email in your inbox.

You'll start receiving the daily forecast at 8 AM.

×

10-Day Weather Forecast

Almanac

Astronomy

Jan. 23, 2017 Rise Set
Actual Time
Civil Twilight
Nautical Twilight
Astronomical Twilight
Moon
Length of Visible Light
Length of Day
Tomorrow will be .
, % of the Moon is Illuminated

Today's Extremes

State Highs State Lows

Community

WunderPhotos

Upload Photos

1,962,540 photos uploaded!

WunderBlog® & News

Nearby

Air Quality

  Air Quality AQ Index Pollutant
Not available.

Snow Depth

Station Depth Elevation

Earthquake Activity

City Distance Mag. Time & Date
Minimum magnitude displayed is 2.5.

Coastal Water Temperatures

Place Temperature

Stations

Nearby Weather Stations

Station Location Temp. Windchill Dew Point Humidity Wind Precip. Elev Updated Type
                   

Watches & Warnings

Gale Warning, Small Craft Advisory
Issued: 2:54 AM EST Jan. 23, 2017 – National Weather Service

... Gale Warning remains in effect until 6 PM EST this evening...
... Small Craft Advisory in effect from 6 PM this evening to 6 PM
EST Tuesday...

The National Weather Service in Baltimore MD/Washington has
issued a Small Craft Advisory... which is in effect from 6 PM this
evening to 6 PM EST Tuesday.

* Winds... 34 to 47 knots within the Gale Warning.

* Winds... 18 to 33 knots within the Small Craft Advisory.

Precautionary/preparedness actions...

A Gale Warning means winds of 34 to 47 knots are imminent or
occurring. Operating a vessel in gale conditions requires
experience and a properly equipped vessel. Recreational boaters
should seek safe Harbor prior to the onset of gale conditions.

A Small Craft Advisory means winds of 18 to 33 knots are imminent
or occurring. Boaters operating smaller vessels should avoid
navigating in these conditions.